Time;durP1;ratioP1;P1;durP2;ratioP2;P2;SDS_P1;SDS_P2;PMS_P1;PMS_P2;Temp;Humidity;BMP_temperature;BMP_pressure;BME280_temperature;BME280_humidity;BME280_pressure;Samples;Min_cycle;Max_cycle;Signal;HPM_P1;HPM_P2
2022/11/06 00:02:06;;;;;;;15.82;10.88;;;;;;;7.26;100.00;100814.56;5052018;28;20199;-76
2022/11/06 00:04:32;;;;;;;19.70;12.63;;;;;;;7.19;100.00;100802.25;5055802;28;20678;-76
2022/11/06 00:06:58;;;;;;;18.35;12.00;;;;;;;7.16;100.00;100796.09;5055757;28;20196;-76
2022/11/06 00:09:25;;;;;;;15.40;11.23;;;;;;;7.14;100.00;100792.56;5053226;28;20240;-75
2022/11/06 00:11:51;;;;;;;22.25;11.93;;;;;;;6.97;100.00;100785.81;5056310;28;20211;-75
2022/11/06 00:14:19;;;;;;;15.40;9.93;;;;;;;6.98;100.00;100781.34;5058761;28;20207;-75
2022/11/06 00:16:47;;;;;;;16.27;11.13;;;;;;;6.97;100.00;100785.81;5060495;28;20286;-75
2022/11/06 00:19:14;;;;;;;22.20;12.93;;;;;;;6.89;100.00;100777.97;5054001;28;20215;-76
2022/11/06 00:21:41;;;;;;;18.10;10.57;;;;;;;6.86;100.00;100766.47;5054155;28;20604;-76
2022/11/06 00:24:08;;;;;;;24.13;12.55;;;;;;;6.83;100.00;100762.06;5053104;28;20228;-75
2022/11/06 00:26:35;;;;;;;22.63;11.48;;;;;;;6.79;100.00;100764.84;5052296;28;20711;-75
2022/11/06 00:29:04;;;;;;;20.27;12.20;;;;;;;6.81;100.00;100761.22;5051835;28;20228;-74
2022/11/06 00:31:32;;;;;;;21.35;13.90;;;;;;;6.82;100.00;100764.78;5053520;28;20290;-75
2022/11/06 00:34:00;;;;;;;19.50;11.35;;;;;;;6.80;100.00;100761.25;5062133;28;20205;-75
2022/11/06 00:36:30;;;;;;;19.92;11.63;;;;;;;6.81;100.00;100765.69;5075297;28;20206;-72
2022/11/06 00:38:57;;;;;;;22.42;11.70;;;;;;;6.69;100.00;100758.81;5077155;28;20225;-72
2022/11/06 00:41:24;;;;;;;20.85;11.57;;;;;;;6.74;100.00;100762.28;5077246;28;20231;-73
2022/11/06 00:43:54;;;;;;;16.35;10.80;;;;;;;6.79;100.00;100759.50;5080336;28;20233;-74
2022/11/06 00:46:21;;;;;;;21.83;10.65;;;;;;;6.74;100.00;100759.63;5077708;28;20183;-72
2022/11/06 00:48:48;;;;;;;19.55;12.15;;;;;;;6.55;100.00;100752.91;5077168;28;20235;-71
2022/11/06 00:51:19;;;;;;;17.98;11.15;;;;;;;6.51;100.00;100751.22;5077161;28;20191;-72
2022/11/06 00:53:46;;;;;;;24.83;12.15;;;;;;;6.51;100.00;100749.41;5077068;28;20263;-71
2022/11/06 00:56:14;;;;;;;16.38;11.75;;;;;;;6.46;100.00;100746.84;5078184;28;20226;-72
2022/11/06 00:58:41;;;;;;;21.52;12.30;;;;;;;6.50;100.00;100741.44;5076189;28;20258;-71
2022/11/06 01:01:09;;;;;;;19.95;11.45;;;;;;;6.52;100.00;100748.53;5072426;28;20237;-73
2022/11/06 01:03:36;;;;;;;26.13;14.13;;;;;;;6.39;100.00;100747.03;5064138;28;20204;-75
2022/11/06 01:06:05;;;;;;;16.15;11.52;;;;;;;6.32;100.00;100743.63;5072786;28;20219;-73
2022/11/06 01:08:34;;;;;;;20.63;12.80;;;;;;;6.30;100.00;100749.94;5065666;28;20277;-73
2022/11/06 01:11:06;;;;;;;22.48;13.10;;;;;;;6.26;100.00;100739.31;5068076;28;20199;-73
2022/11/06 01:13:32;;;;;;;17.17;11.50;;;;;;;6.23;100.00;100738.47;5066488;28;20215;-74
2022/11/06 01:15:59;;;;;;;20.13;12.23;;;;;;;6.25;100.00;100742.00;5063229;28;20673;-74
2022/11/06 01:18:26;;;;;;;18.80;11.85;;;;;;;6.18;100.00;100735.03;5059735;28;20705;-73
2022/11/06 01:20:52;;;;;;;23.55;12.60;;;;;;;6.17;100.00;100738.59;5056794;28;20238;-75
2022/11/06 01:23:19;;;;;;;22.80;13.88;;;;;;;6.23;100.00;100735.81;5059345;28;20276;-75
2022/11/06 01:25:56;;;;;;;20.85;12.70;;;;;;;6.18;100.00;100732.34;5058271;28;20684;-73
2022/11/06 01:28:22;;;;;;;19.20;11.80;;;;;;;6.13;100.00;100737.81;5055314;28;20225;-75
2022/11/06 01:30:49;;;;;;;17.35;11.10;;;;;;;6.21;100.00;100740.31;5058918;28;20220;-74
2022/11/06 01:33:15;;;;;;;24.58;12.98;;;;;;;6.21;100.00;100733.16;5059094;28;20224;-76
2022/11/06 01:35:44;;;;;;;18.05;12.45;;;;;;;6.24;100.00;100737.56;5052669;28;20203;-76
2022/11/06 01:38:11;;;;;;;26.55;14.05;;;;;;;6.20;100.00;100735.88;5051072;28;20229;-75
2022/11/06 01:40:40;;;;;;;22.50;13.25;;;;;;;6.16;100.00;100732.38;5052328;28;20238;-75
2022/11/06 01:43:14;;;;;;;24.20;13.77;;;;;;;6.20;100.00;100738.56;5053501;28;20204;-74
2022/11/06 01:45:42;;;;;;;15.25;11.25;;;;;;;6.31;100.00;100744.56;5071373;22;20259;-74
2022/11/06 01:48:09;;;;;;;20.25;12.45;;;;;;;6.31;100.00;100749.00;5051050;28;20198;-74
2022/11/06 01:50:37;;;;;;;18.83;11.68;;;;;;;6.38;100.00;100748.84;5049376;28;20193;-74
2022/11/06 01:53:04;;;;;;;21.83;12.15;;;;;;;6.43;100.00;100746.06;5064741;28;20202;-72
2022/11/06 01:55:34;;;;;;;20.05;13.07;;;;;;;6.43;100.00;100748.75;5065332;28;20218;-75
2022/11/06 01:58:03;;;;;;;19.52;13.00;;;;;;;6.43;100.00;100730.88;5056771;28;20222;-75
2022/11/06 02:00:31;;;;;;;18.05;12.75;;;;;;;6.35;100.00;100724.81;5055323;28;20233;-72
2022/11/06 02:02:58;;;;;;;23.88;12.88;;;;;;;6.25;100.00;100717.94;5053781;28;20210;-75
2022/11/06 02:05:25;;;;;;;20.10;12.82;;;;;;;6.14;100.00;100722.63;5053969;28;20221;-75
2022/11/06 02:07:53;;;;;;;22.45;13.70;;;;;;;6.03;100.00;100722.88;5056885;28;20289;-76
2022/11/06 02:10:19;;;;;;;20.15;12.60;;;;;;;6.10;100.00;100728.97;5056259;28;20203;-75
2022/11/06 02:12:54;;;;;;;20.60;12.13;;;;;;;6.13;100.00;100723.53;5055736;28;20204;-74
2022/11/06 02:15:33;;;;;;;19.33;12.77;;;;;;;6.07;100.00;100721.88;5057985;28;20218;-75
2022/11/06 02:18:44;;;;;;;21.63;12.00;;;;;;;6.01;100.00;100717.53;5056899;28;20578;-75
2022/11/06 02:21:29;;;;;;;21.30;12.88;;;;;;;5.87;100.00;100711.56;4995556;28;20616;-74
2022/11/06 02:24:16;;;;;;;19.48;12.50;;;;;;;5.79;100.00;100711.75;4998118;28;20218;-76
2022/11/06 02:27:09;;;;;;;19.83;12.80;;;;;;;5.67;100.00;100703.09;4996477;28;20206;-74
2022/11/06 02:29:48;;;;;;;16.77;11.60;;;;;;;5.51;100.00;100695.38;4994078;28;20205;-75
2022/11/06 02:32:20;;;;;;;16.48;11.85;;;;;;;5.40;100.00;100694.72;4995478;28;20229;-74
2022/11/06 02:34:50;;;;;;;23.17;12.73;;;;;;;5.50;100.00;100687.41;4995701;28;20760;-76
2022/11/06 02:37:21;;;;;;;19.77;12.45;;;;;;;5.53;100.00;100685.53;4996032;28;20199;-75
2022/11/06 02:39:51;;;;;;;22.38;13.13;;;;;;;5.52;100.00;100683.81;4997656;28;20200;-77
2022/11/06 02:42:20;;;;;;;23.60;14.43;;;;;;;5.41;100.00;100675.13;4988874;28;20710;-74
2022/11/06 02:44:51;;;;;;;19.08;11.45;;;;;;;5.26;100.00;100686.09;4993975;28;20762;-74
2022/11/06 02:47:19;;;;;;;21.00;12.98;;;;;;;5.25;100.00;100687.91;4996489;28;20605;-73
2022/11/06 02:49:49;;;;;;;19.15;12.68;;;;;;;5.17;100.00;100685.34;4993982;28;20250;-73
2022/11/06 02:52:20;;;;;;;17.80;12.65;;;;;;;5.09;100.00;100687.28;5000225;28;20199;-73
2022/11/06 02:54:50;;;;;;;24.67;14.05;;;;;;;5.10;100.00;100686.38;5014257;28;20714;-74
2022/11/06 02:57:20;;;;;;;21.58;12.13;;;;;;;5.07;100.00;100680.22;5055241;28;20203;-75
2022/11/06 02:59:52;;;;;;;21.10;12.82;;;;;;;5.00;100.00;100685.66;5059904;28;20197;-75
2022/11/06 03:02:24;;;;;;;25.50;14.50;;;;;;;5.07;100.00;100681.09;5055338;28;20201;-76
2022/11/06 03:04:55;;;;;;;23.92;14.07;;;;;;;5.01;100.00;100682.06;5057670;28;20236;-76
2022/11/06 03:07:31;;;;;;;27.13;14.95;;;;;;;4.88;100.00;100683.19;5057676;28;20284;-74
2022/11/06 03:09:57;;;;;;;25.80;14.98;;;;;;;4.93;100.00;100672.44;5056792;28;20203;-76
2022/11/06 03:12:30;;;;;;;23.50;13.82;;;;;;;4.84;100.00;100681.50;5052296;28;20209;-75
2022/11/06 03:15:00;;;;;;;20.63;13.75;;;;;;;4.75;100.00;100679.88;5051352;28;20221;-75
2022/11/06 03:17:38;;;;;;;23.10;13.07;;;;;;;4.70;100.00;100684.38;5056066;28;20209;-75
2022/11/06 03:20:16;;;;;;;26.38;15.32;;;;;;;4.89;100.00;100684.97;5050560;28;20208;-77
2022/11/06 03:22:51;;;;;;;26.20;14.82;;;;;;;5.14;100.00;100696.09;5047980;28;20207;-77
2022/11/06 03:25:22;;;;;;;20.98;13.88;;;;;;;5.13;100.00;100688.09;5055188;28;20285;-76
2022/11/06 03:28:00;;;;;;;26.88;14.85;;;;;;;4.97;100.00;100672.34;5051382;28;20198;-75
2022/11/06 03:30:26;;;;;;;30.40;14.55;;;;;;;4.88;100.00;100671.66;5054144;28;20306;-75
2022/11/06 03:32:59;;;;;;;26.60;15.35;;;;;;;4.83;100.00;100661.06;5057443;28;20284;-75
2022/11/06 03:35:30;;;;;;;26.58;14.13;;;;;;;4.75;100.00;100661.22;5054761;28;20599;-75
2022/11/06 03:38:01;;;;;;;26.58;13.05;;;;;;;4.67;100.00;100662.25;5052652;28;20200;-75
2022/11/06 03:40:32;;;;;;;21.90;13.35;;;;;;;4.64;100.00;100663.16;5054929;28;20216;-75
2022/11/06 03:43:04;;;;;;;25.13;13.50;;;;;;;4.64;100.00;100663.16;5055459;28;20197;-74
2022/11/06 03:45:32;;;;;;;21.58;13.05;;;;;;;4.53;100.00;100667.81;5068775;28;20231;-74
2022/11/06 03:48:05;;;;;;;23.85;12.48;;;;;;;4.46;100.00;100668.81;5069675;28;20209;-72
2022/11/06 03:50:35;;;;;;;18.70;12.65;;;;;;;4.40;100.00;100669.78;5074551;28;20197;-74
2022/11/06 03:53:08;;;;;;;23.40;14.15;;;;;;;4.22;100.00;100664.72;5075832;28;20265;-73
2022/11/06 03:55:41;;;;;;;18.95;12.20;;;;;;;4.18;100.00;100658.56;5063311;28;20260;-72
2022/11/06 03:58:12;;;;;;;25.10;12.15;;;;;;;4.14;100.00;100665.72;5059965;28;20205;-74
2022/11/06 04:00:49;;;;;;;22.70;11.95;;;;;;;4.03;100.00;100656.13;5058976;28;20271;-75
2022/11/06 04:03:23;;;;;;;20.17;11.65;;;;;;;3.98;100.00;100656.22;5065241;28;20281;-73
2022/11/06 04:05:53;;;;;;;21.35;13.07;;;;;;;3.87;100.00;100656.34;5063078;28;20289;-74
2022/11/06 04:13:57;;;;;;;22.05;12.30;;;;;;;3.88;100.00;100643.91;5043568;28;20205;-75
2022/11/06 04:16:26;;;;;;;19.83;12.15;;;;;;;3.87;100.00;100645.69;5050412;28;20244;-76
2022/11/06 04:18:52;;;;;;;16.90;11.75;;;;;;;3.81;100.00;100648.44;5053593;28;20208;-76
2022/11/06 04:21:26;;;;;;;17.55;11.95;;;;;;;3.79;100.00;100636.91;5052857;28;20221;-74
2022/11/06 04:27:02;;;;;;;112.03;60.28;;;;;;;3.86;100.00;100646.56;5048095;28;20300;-75
2022/11/06 04:29:42;;;;;;;20.85;12.95;;;;;;;3.78;100.00;100643.16;5053705;28;20197;-75
2022/11/06 04:32:17;;;;;;;28.52;18.00;;;;;;;3.76;100.00;100632.50;5048193;28;20243;-76
2022/11/06 04:34:48;;;;;;;21.25;13.25;;;;;;;3.74;100.00;100631.66;5055506;28;20220;-74
2022/11/06 04:37:22;;;;;;;23.05;13.30;;;;;;;3.79;100.00;100642.25;5064984;28;20220;-74
2022/11/06 04:39:56;;;;;;;23.42;13.40;;;;;;;3.68;100.00;100649.50;5059108;28;20189;-75
2022/11/06 04:42:29;;;;;;;16.90;11.40;;;;;;;3.64;100.00;100651.34;5061770;28;20221;-74
2022/11/06 04:45:03;;;;;;;19.85;12.30;;;;;;;3.52;100.00;100652.34;5061711;28;20243;-74
2022/11/06 04:47:30;;;;;;;20.92;12.52;;;;;;;3.56;100.00;100658.53;5060294;28;20650;-74
2022/11/06 04:50:00;;;;;;;22.25;12.77;;;;;;;3.54;100.00;100663.88;5052415;28;20193;-74
2022/11/06 04:52:29;;;;;;;21.45;12.60;;;;;;;3.66;100.00;100668.16;5059301;28;20261;-75
2022/11/06 04:54:57;;;;;;;20.20;12.50;;;;;;;3.55;100.00;100665.66;5057868;28;20679;-76
2022/11/06 04:57:25;;;;;;;20.88;11.40;;;;;;;3.49;100.00;100655.06;5053776;28;20658;-74
2022/11/06 04:59:52;;;;;;;17.30;11.32;;;;;;;3.44;100.00;100651.56;5051378;28;20284;-76
2022/11/06 05:02:20;;;;;;;19.80;11.73;;;;;;;3.43;100.00;100657.78;5051359;28;20224;-75
2022/11/06 05:04:47;;;;;;;21.20;11.27;;;;;;;3.33;100.00;100657.03;5056189;28;20221;-75
2022/11/06 05:07:14;;;;;;;19.42;13.57;;;;;;;3.27;100.00;100662.41;5057409;28;20630;-74
2022/11/06 05:09:40;;;;;;;21.23;13.02;;;;;;;3.17;100.00;100670.53;5052843;28;20211;-75
2022/11/06 05:12:07;;;;;;;27.30;14.20;;;;;;;3.19;100.00;100668.72;5042570;28;20197;-76
2022/11/06 05:14:34;;;;;;;25.25;11.48;;;;;;;3.14;100.00;100666.09;5051815;28;20228;-76
2022/11/06 05:17:00;;;;;;;22.45;12.48;;;;;;;3.20;100.00;100665.16;5051107;28;20207;-77
2022/11/06 05:19:28;;;;;;;22.40;12.80;;;;;;;3.05;100.00;100676.84;5052043;28;20201;-74
2022/11/06 05:24:41;;;;;;;20.08;12.90;;;;;;;2.99;100.00;100672.47;4968602;28;20222;-77
2022/11/06 05:27:08;;;;;;;28.02;12.90;;;;;;;2.97;100.00;100665.41;4972722;28;20200;-75
2022/11/06 05:29:34;;;;;;;22.90;12.75;;;;;;;3.04;100.00;100656.47;4961433;28;20203;-76
2022/11/06 05:32:01;;;;;;;26.27;14.90;;;;;;;3.09;100.00;100658.16;4969290;28;20782;-76
2022/11/06 05:34:29;;;;;;;21.27;13.38;;;;;;;3.09;100.00;100652.84;4971391;28;20233;-73
2022/11/06 05:36:56;;;;;;;28.00;13.85;;;;;;;2.97;100.00;100647.66;4971856;28;20630;-74
2022/11/06 05:39:23;;;;;;;19.67;12.60;;;;;;;2.91;100.00;100637.06;4973284;28;20236;-76
2022/11/06 05:41:50;;;;;;;22.20;13.68;;;;;;;2.99;100.00;100631.69;4972772;28;20219;-76
2022/11/06 05:44:16;;;;;;;25.25;13.90;;;;;;;2.94;100.00;100639.72;4975580;28;20211;-76
2022/11/06 05:46:43;;;;;;;21.80;12.05;;;;;;;2.98;100.00;100633.44;4976874;28;20271;-76
2022/11/06 05:49:09;;;;;;;18.35;11.90;;;;;;;2.99;100.00;100629.91;4989731;28;20254;-73
2022/11/06 05:51:37;;;;;;;19.70;11.77;;;;;;;2.89;100.00;100638.88;4992083;28;20219;-74
2022/11/06 05:54:04;;;;;;;20.65;11.55;;;;;;;2.90;100.00;100635.31;4981327;28;20220;-74
2022/11/06 05:56:30;;;;;;;20.88;12.55;;;;;;;2.97;100.00;100642.34;4974010;28;20318;-75
2022/11/06 05:58:57;;;;;;;18.23;11.70;;;;;;;2.97;100.00;100641.47;4982972;28;20206;-75
2022/11/06 06:01:24;;;;;;;22.10;12.13;;;;;;;2.89;100.00;100641.53;5008271;28;21006;-75
2022/11/06 06:03:50;;;;;;;20.77;13.07;;;;;;;2.80;100.00;100623.00;5050227;28;20201;-75
2022/11/06 06:06:17;;;;;;;19.13;12.25;;;;;;;2.69;100.00;100616.03;5053206;28;20305;-75
2022/11/06 06:08:45;;;;;;;20.85;11.38;;;;;;;2.69;100.00;100608.03;5053067;28;20239;-74
2022/11/06 06:11:11;;;;;;;25.40;11.77;;;;;;;2.65;100.00;100608.97;5053022;28;20200;-77
2022/11/06 06:13:38;;;;;;;20.60;12.05;;;;;;;2.58;100.00;100596.63;5053343;28;20231;-76
2022/11/06 06:16:06;;;;;;;20.83;11.77;;;;;;;2.71;100.00;100590.28;5054500;28;20218;-74
2022/11/06 06:18:32;;;;;;;19.58;12.63;;;;;;;2.70;100.00;100593.84;5053209;28;20200;-77
2022/11/06 06:20:59;;;;;;;22.27;12.20;;;;;;;2.57;100.00;100586.00;5053269;28;20227;-78
2022/11/06 06:23:26;;;;;;;18.30;12.38;;;;;;;2.64;100.00;100583.25;5054609;28;20213;-77
2022/11/06 06:25:54;;;;;;;18.25;9.95;;;;;;;2.68;100.00;100590.31;5054661;28;20209;-73
2022/11/06 06:28:20;;;;;;;21.02;10.98;;;;;;;2.68;100.00;100597.41;5052545;28;20300;-75
2022/11/06 06:30:47;;;;;;;14.32;10.25;;;;;;;2.72;100.00;100593.84;5052478;28;20677;-74
2022/11/06 06:33:13;;;;;;;18.02;11.13;;;;;;;2.68;100.00;100587.66;5053907;28;20203;-74
2022/11/06 06:35:40;;;;;;;19.38;10.15;;;;;;;2.70;100.00;100580.53;5056086;28;20235;-77
2022/11/06 06:38:06;;;;;;;14.52;10.57;;;;;;;2.65;100.00;100569.06;5057371;28;20205;-76
2022/11/06 06:40:33;;;;;;;15.68;11.15;;;;;;;2.74;100.00;100568.09;5059107;28;20211;-76
2022/11/06 06:43:01;;;;;;;23.45;10.73;;;;;;;2.82;100.00;100562.69;5058088;28;20292;-75
2022/11/06 06:45:27;;;;;;;18.42;10.52;;;;;;;2.78;100.00;100552.97;5060521;28;20301;-76
2022/11/06 06:47:54;;;;;;;20.40;11.85;;;;;;;2.84;100.00;100551.13;5058109;28;20196;-75
2022/11/06 06:50:20;;;;;;;20.02;10.50;;;;;;;3.03;100.00;100553.56;5055752;28;20218;-73
2022/11/06 06:52:47;;;;;;;18.77;11.45;;;;;;;2.92;100.00;100548.41;5062933;28;20191;-74
2022/11/06 06:55:14;;;;;;;20.15;11.60;;;;;;;3.13;100.00;100545.47;5065538;28;20213;-76
2022/11/06 06:57:40;;;;;;;16.58;10.80;;;;;;;3.31;100.00;100544.34;5053906;28;20738;-79
2022/11/06 07:00:09;;;;;;;16.10;10.52;;;;;;;3.42;100.00;100546.88;5052984;28;20209;-78
2022/11/06 07:02:36;;;;;;;23.23;11.00;;;;;;;3.78;100.00;100546.34;5062663;28;20227;-73
2022/11/06 07:05:04;;;;;;;20.38;10.52;;;;;;;4.14;100.00;100553.78;5061090;28;20224;-74
2022/11/06 07:07:32;;;;;;;19.42;10.73;;;;;;;4.58;100.00;100554.78;5067742;28;20649;-74
2022/11/06 07:09:58;;;;;;;16.63;10.20;;;;;;;4.79;100.00;100548.19;5062431;28;20225;-75
2022/11/06 07:12:25;;;;;;;16.55;9.10;;;;;;;5.74;100.00;100555.06;5060301;28;20198;-76
2022/11/06 07:14:51;;;;;;;20.77;9.70;;;;;;;5.91;100.00;100552.88;5053098;28;20285;-75
2022/11/06 07:17:19;;;;;;;14.05;8.40;;;;;;;6.72;100.00;100549.97;5050155;28;20201;-73
2022/11/06 07:19:46;;;;;;;12.55;8.00;;;;;;;7.29;100.00;100546.56;5055618;28;20719;-73
2022/11/06 07:22:12;;;;;;;10.30;7.90;;;;;;;7.89;100.00;100543.84;5062054;28;20242;-74
2022/11/06 07:24:39;;;;;;;11.15;7.65;;;;;;;8.64;100.00;100535.09;5058753;28;20597;-76
2022/11/06 07:27:06;;;;;;;10.25;8.13;;;;;;;8.96;100.00;100534.84;5056806;28;20292;-76
2022/11/06 07:29:32;;;;;;;13.10;8.25;;;;;;;9.33;100.00;100533.44;5053492;28;20573;-75
2022/11/06 07:31:59;;;;;;;9.82;8.27;;;;;;;9.63;100.00;100524.25;5056329;28;20205;-73
2022/11/06 07:34:27;;;;;;;11.05;8.48;;;;;;;9.51;100.00;100520.25;5071126;28;20215;-75
2022/11/06 07:36:53;;;;;;;12.88;8.60;;;;;;;10.28;100.00;100517.13;5054059;28;20288;-76
2022/11/06 07:39:20;;;;;;;10.48;7.53;;;;;;;10.92;100.00;100514.38;5051598;28;20197;-73
2022/11/06 07:41:46;;;;;;;13.07;8.23;;;;;;;11.54;100.00;100515.09;5054044;28;20221;-74
2022/11/06 07:44:13;;;;;;;10.98;8.50;;;;;;;11.74;97.53;100521.38;5056165;28;20193;-74
2022/11/06 07:46:39;;;;;;;14.18;8.00;;;;;;;12.43;92.33;100521.50;5071856;22;20252;-74
2022/11/06 07:49:06;;;;;;;12.13;7.40;;;;;;;12.84;86.38;100523.03;5054606;28;20205;-76
2022/11/06 07:51:34;;;;;;;9.20;8.18;;;;;;;12.80;83.69;100524.13;5062624;28;20242;-75
2022/11/06 07:54:00;;;;;;;10.13;7.63;;;;;;;13.39;83.80;100533.63;5076725;28;20193;-75
2022/11/06 07:56:27;;;;;;;14.13;9.45;;;;;;;12.53;89.60;100508.44;5059854;28;20268;-76
2022/11/06 07:58:53;;;;;;;10.57;8.85;;;;;;;12.81;87.36;100517.78;5057027;28;20569;-76
2022/11/06 08:01:20;;;;;;;10.63;8.55;;;;;;;13.62;82.01;100518.81;5061648;28;20198;-75
2022/11/06 08:03:47;;;;;;;17.88;9.85;;;;;;;13.82;80.46;100524.94;5060945;28;20235;-75
2022/11/06 08:06:13;;;;;;;11.35;10.13;;;;;;;14.36;77.89;100515.44;5060481;28;20223;-75
2022/11/06 08:08:41;;;;;;;12.18;10.38;;;;;;;14.18;77.29;100517.38;5059984;28;20211;-76
2022/11/06 08:11:09;;;;;;;15.65;11.15;;;;;;;13.96;78.82;100525.00;5060526;28;20265;-76
2022/11/06 08:13:37;;;;;;;14.82;12.18;;;;;;;13.28;92.47;100534.19;5051616;28;20205;-76
2022/11/06 08:16:05;;;;;;;18.23;12.52;;;;;;;14.02;84.75;100529.19;5058294;28;20300;-74
2022/11/06 08:18:32;;;;;;;16.23;12.35;;;;;;;14.64;78.64;100524.66;5053875;28;20283;-75
2022/11/06 08:20:58;;;;;;;15.95;13.00;;;;;;;15.13;77.49;100516.22;5056633;28;20205;-75
2022/11/06 08:23:25;;;;;;;17.40;13.50;;;;;;;15.71;72.24;100524.34;5062522;28;20262;-76
2022/11/06 08:25:55;;;;;;;15.75;12.88;;;;;;;15.39;74.90;100524.53;5061493;28;20217;-72
2022/11/06 08:28:22;;;;;;;265.70;198.80;;;;;;;15.92;74.22;100522.06;5054284;28;20209;-76
2022/11/06 08:30:48;;;;;;;31.38;25.73;;;;;;;16.78;66.51;100525.31;5054049;28;20283;-74
2022/11/06 08:33:15;;;;;;;15.27;13.67;;;;;;;16.11;68.58;100524.47;5055481;28;20537;-75
2022/11/06 08:35:41;;;;;;;15.60;12.93;;;;;;;16.67;67.62;100528.78;5054744;28;20671;-75
2022/11/06 08:38:08;;;;;;;17.77;13.23;;;;;;;17.58;62.62;100533.28;5056198;28;20464;-75
2022/11/06 08:40:37;;;;;;;18.43;13.27;;;;;;;18.09;60.37;100525.00;5056729;28;20546;-76
2022/11/06 08:43:07;;;;;;;14.27;12.77;;;;;;;18.30;58.22;100521.66;5057484;28;20467;-74
2022/11/06 08:45:36;;;;;;;15.10;12.83;;;;;;;17.12;63.31;100525.72;5056322;28;20507;-74
2022/11/06 08:48:04;;;;;;;16.03;13.37;;;;;;;16.90;64.40;100514.59;5058579;28;20455;-74
2022/11/06 08:50:31;;;;;;;14.77;13.27;;;;;;;18.10;60.37;100513.13;5054599;28;20550;-75
2022/11/06 08:52:58;;;;;;;14.33;12.60;;;;;;;18.11;58.63;100506.69;5056872;28;20887;-75
2022/11/06 08:55:25;;;;;;;13.63;12.10;;;;;;;19.62;54.70;100510.44;5057407;28;20486;-74
2022/11/06 08:57:54;;;;;;;15.40;13.10;;;;;;;19.80;51.37;100503.47;5057528;28;20539;-76
2022/11/06 09:00:22;;;;;;;14.20;12.77;;;;;;;20.18;50.44;100488.50;5038117;28;20456;-75
2022/11/06 09:02:49;;;;;;;14.63;11.87;;;;;;;20.10;48.81;100489.16;5056797;28;20475;-76
2022/11/06 09:05:15;;;;;;;14.53;13.13;;;;;;;18.34;53.28;100493.19;5056850;28;20459;-75
2022/11/06 09:07:42;;;;;;;15.23;13.63;;;;;;;17.98;56.96;100483.22;5056026;28;20555;-74
2022/11/06 09:10:09;;;;;;;15.13;12.33;;;;;;;19.50;51.30;100485.84;5055407;28;20460;-74
2022/11/06 09:12:36;;;;;;;14.40;12.40;;;;;;;19.92;49.75;100480.63;5041452;28;20444;-74
2022/11/06 09:15:02;;;;;;;159.40;131.53;;;;;;;18.51;54.40;100481.81;5065034;28;20459;-75
2022/11/06 09:17:30;;;;;;;14.97;13.50;;;;;;;18.31;54.21;100485.22;5071872;28;21157;-69
2022/11/06 09:19:57;;;;;;;14.63;12.90;;;;;;;17.59;58.96;100485.13;5038987;28;20966;-71
2022/11/06 09:22:24;;;;;;;14.37;11.67;;;;;;;17.67;58.97;100480.00;5056659;28;20490;-71
2022/11/06 09:24:50;;;;;;;13.37;11.20;;;;;;;17.72;59.04;100466.91;5057417;28;21047;-72
2022/11/06 09:27:17;;;;;;;16.07;11.97;;;;;;;19.29;55.43;100463.03;5058830;28;20535;-69
2022/11/06 09:29:43;;;;;;;11.77;10.50;;;;;;;19.28;52.49;100456.69;5055504;28;20452;-73
2022/11/06 09:32:10;;;;;;;12.13;10.90;;;;;;;19.82;50.03;100456.91;5056739;28;20466;-77
2022/11/06 09:34:38;;;;;;;20.33;12.33;;;;;;;19.18;53.00;100442.06;5058654;28;20442;-74
2022/11/06 09:37:04;;;;;;;13.10;10.10;;;;;;;19.78;50.46;100443.47;5054126;28;20448;-72
2022/11/06 09:39:31;;;;;;;10.03;9.03;;;;;;;20.53;47.33;100447.19;5068156;28;20527;-74
2022/11/06 09:42:01;;;;;;;10.73;9.30;;;;;;;18.96;50.75;100432.84;5069152;28;20539;-75
2022/11/06 09:44:42;;;;;;;11.80;9.73;;;;;;;19.45;50.55;100432.63;5061853;28;20463;-73
2022/11/06 09:47:15;;;;;;;11.23;9.60;;;;;;;21.15;47.02;100425.41;5059162;28;20461;-74
2022/11/06 09:49:48;;;;;;;9.10;8.20;;;;;;;22.03;43.70;100418.31;5057478;28;20519;-75
2022/11/06 09:52:20;;;;;;;9.50;8.47;;;;;;;21.39;44.78;100419.56;5057823;28;20811;-73
2022/11/06 09:54:50;;;;;;;11.20;8.60;;;;;;;21.17;45.86;100402.34;5056086;28;20451;-73
2022/11/06 09:57:20;;;;;;;8.67;7.77;;;;;;;22.21;43.27;100405.66;5055185;28;20434;-74
2022/11/06 09:59:48;;;;;;;9.63;7.07;;;;;;;20.51;45.36;100391.75;5052153;28;20885;-73
2022/11/06 10:02:24;;;;;;;7.10;6.00;;;;;;;19.90;47.98;100394.25;5053542;28;20481;-73
2022/11/06 10:05:00;;;;;;;8.33;6.47;;;;;;;20.19;47.15;100395.41;5053537;28;20435;-72
2022/11/06 10:07:30;;;;;;;11.33;9.23;;;;;;;20.61;46.34;100397.31;5052393;28;20458;-72
2022/11/06 10:09:57;;;;;;;8.73;7.93;;;;;;;20.80;45.22;100399.28;5051350;28;20466;-74
2022/11/06 10:12:33;;;;;;;7.50;6.00;;;;;;;21.84;43.38;100389.88;5032307;28;20976;-74
2022/11/06 10:15:08;;;;;;;11.03;7.80;;;;;;;22.97;40.89;100382.81;5053005;28;20455;-76
2022/11/06 10:17:46;;;;;;;6.13;5.43;;;;;;;22.11;41.38;100363.59;5054664;28;20426;-79
2022/11/06 10:20:19;;;;;;;9.50;5.30;;;;;;;22.07;42.31;100359.44;5061077;28;20455;-74
2022/11/06 10:23:00;;;;;;;5.23;4.40;;;;;;;21.37;42.54;100356.72;5065719;28;20658;-75
2022/11/06 10:25:44;;;;;;;6.43;5.27;;;;;;;19.52;47.19;100347.28;5061836;28;20466;-75
2022/11/06 10:28:21;;;;;;;6.03;5.10;;;;;;;18.99;49.76;100344.41;5056808;28;20475;-74
2022/11/06 10:30:56;;;;;;;8.50;5.20;;;;;;;19.49;49.61;100339.38;5056650;28;20419;-75
2022/11/06 10:33:34;;;;;;;5.93;5.30;;;;;;;21.01;44.62;100347.25;5055452;28;20977;-75
2022/11/06 10:36:09;;;;;;;4.80;4.30;;;;;;;21.86;42.38;100338.47;5055180;28;20479;-73
2022/11/06 10:38:40;;;;;;;5.33;4.07;;;;;;;22.39;42.04;100344.56;5048332;28;20457;-76
2022/11/06 10:41:17;;;;;;;5.57;4.20;;;;;;;22.65;40.21;100345.63;5056442;28;20460;-73
2022/11/06 10:43:49;;;;;;;4.40;4.00;;;;;;;22.17;40.96;100324.63;5048708;28;20463;-69
2022/11/06 10:46:23;;;;;;;4.00;3.57;;;;;;;21.54;41.67;100330.53;5041973;28;20493;-72
2022/11/06 10:48:55;;;;;;;5.93;4.33;;;;;;;20.77;44.21;100321.06;5050655;28;20438;-72
2022/11/06 10:51:42;;;;;;;4.50;4.10;;;;;;;21.11;43.97;100328.97;5057204;28;20429;-73
2022/11/06 10:54:25;;;;;;;4.63;3.73;;;;;;;22.40;41.27;100327.06;5057026;28;20452;-74
2022/11/06 10:57:05;;;;;;;6.13;4.10;;;;;;;22.04;42.03;100329.53;5052866;28;20550;-75
2022/11/06 10:59:32;;;;;;;5.70;4.23;;;;;;;22.61;40.48;100327.75;5058236;28;20486;-74
2022/11/06 11:01:59;;;;;;;4.90;3.37;;;;;;;23.53;39.27;100310.38;5056361;28;20456;-75
2022/11/06 11:04:25;;;;;;;5.37;3.67;;;;;;;22.84;39.69;100299.94;5054285;28;21022;-74
2022/11/06 11:06:53;;;;;;;4.70;3.43;;;;;;;22.42;40.51;100311.34;5056535;28;20810;-74
2022/11/06 11:09:28;;;;;;;4.90;4.33;;;;;;;21.26;42.06;100293.00;5059144;28;20987;-75
2022/11/06 11:11:55;;;;;;;4.70;4.00;;;;;;;20.59;44.71;100288.00;5064967;28;20455;-74
2022/11/06 11:14:24;;;;;;;5.10;3.70;;;;;;;21.27;43.71;100275.53;5041625;28;20452;-76
2022/11/06 11:16:51;;;;;;;5.60;3.70;;;;;;;22.36;41.40;100274.38;5065538;28;20927;-74
2022/11/06 11:19:27;;;;;;;4.40;3.70;;;;;;;23.73;40.13;100275.34;5049272;28;20472;-76
2022/11/06 11:21:57;;;;;;;5.13;3.40;;;;;;;23.14;39.98;100264.97;5049232;28;20455;-76
2022/11/06 11:24:24;;;;;;;4.70;3.70;;;;;;;23.05;40.12;100264.00;5058167;28;20570;-75
2022/11/06 11:26:54;;;;;;;76.97;68.83;;;;;;;24.91;37.69;100258.47;5057127;28;20941;-73
2022/11/06 11:29:24;;;;;;;21.93;17.30;;;;;;;26.50;35.41;100247.25;5060020;28;20479;-71
2022/11/06 11:31:54;;;;;;;8.23;6.13;;;;;;;24.33;37.38;100238.91;5051674;28;20460;-72
2022/11/06 11:34:23;;;;;;;5.63;3.23;;;;;;;25.31;36.04;100238.47;5058840;28;20438;-72